Terminal Aerodrome Forecast
Issued by NWS

Home | Current Version | Previous Version | Graphics & Text | Print | Product List | Glossary On
Versions: 1 2 3 4 5 6 7 8 9 10 11 12 13 14 15 16 17
596
FTUS43 KIWX 201126
TAFSBN
TAF
KSBN 201126Z 2012/2112 12005KT P6SM BKN250
     FM201800 15013G22KT P6SM SCT250
     FM210600 18013KT 3SM -SHRA OVC020=

USA.gov is the U.S. government's official web portal to all federal, state and local government web resources and services.